sensor_id;sensor_type;location;lat;lon;timestamp;P1;durP1;ratioP1;P2;durP2;ratioP2
12947;SDS011;6539;49.476;8.484;2022-10-17T00:00:58;7.13;;;3.47;;
12947;SDS011;6539;49.476;8.484;2022-10-17T00:03:24;3.93;;;2.90;;
12947;SDS011;6539;49.476;8.484;2022-10-17T00:05:52;8.53;;;4.93;;
12947;SDS011;6539;49.476;8.484;2022-10-17T00:08:18;6.33;;;4.43;;
12947;SDS011;6539;49.476;8.484;2022-10-17T00:10:44;5.03;;;3.90;;
12947;SDS011;6539;49.476;8.484;2022-10-17T00:13:20;6.93;;;4.80;;
12947;SDS011;6539;49.476;8.484;2022-10-17T00:15:48;4.90;;;4.20;;
12947;SDS011;6539;49.476;8.484;2022-10-17T00:18:17;9.33;;;4.37;;
12947;SDS011;6539;49.476;8.484;2022-10-17T00:20:43;6.13;;;4.37;;
12947;SDS011;6539;49.476;8.484;2022-10-17T00:23:09;8.53;;;4.63;;
12947;SDS011;6539;49.476;8.484;2022-10-17T00:25:35;6.43;;;4.67;;
12947;SDS011;6539;49.476;8.484;2022-10-17T00:28:01;7.87;;;4.10;;
12947;SDS011;6539;49.476;8.484;2022-10-17T00:30:30;8.17;;;4.23;;
12947;SDS011;6539;49.476;8.484;2022-10-17T00:33:01;6.60;;;4.00;;
12947;SDS011;6539;49.476;8.484;2022-10-17T00:35:30;6.80;;;4.30;;
12947;SDS011;6539;49.476;8.484;2022-10-17T00:37:56;4.80;;;4.23;;
12947;SDS011;6539;49.476;8.484;2022-10-17T00:40:22;6.93;;;4.47;;
12947;SDS011;6539;49.476;8.484;2022-10-17T00:42:49;5.17;;;3.77;;
12947;SDS011;6539;49.476;8.484;2022-10-17T00:45:21;5.10;;;3.90;;
12947;SDS011;6539;49.476;8.484;2022-10-17T00:48:04;6.83;;;3.77;;
12947;SDS011;6539;49.476;8.484;2022-10-17T00:50:37;4.30;;;3.80;;
12947;SDS011;6539;49.476;8.484;2022-10-17T00:53:06;5.93;;;4.70;;
12947;SDS011;6539;49.476;8.484;2022-10-17T00:55:34;3.77;;;3.37;;
12947;SDS011;6539;49.476;8.484;2022-10-17T00:58:12;5.27;;;3.03;;
12947;SDS011;6539;49.476;8.484;2022-10-17T01:00:39;6.53;;;2.80;;
12947;SDS011;6539;49.476;8.484;2022-10-17T01:03:09;6.40;;;3.07;;
12947;SDS011;6539;49.476;8.484;2022-10-17T01:05:37;7.27;;;3.27;;
12947;SDS011;6539;49.476;8.484;2022-10-17T01:08:05;4.30;;;2.90;;
12947;SDS011;6539;49.476;8.484;2022-10-17T01:13:32;6.60;;;3.40;;
12947;SDS011;6539;49.476;8.484;2022-10-17T01:16:43;4.53;;;2.83;;
12947;SDS011;6539;49.476;8.484;2022-10-17T01:22:46;3.83;;;3.40;;
12947;SDS011;6539;49.476;8.484;2022-10-17T01:25:44;4.20;;;3.30;;
12947;SDS011;6539;49.476;8.484;2022-10-17T01:31:35;6.40;;;3.60;;
12947;SDS011;6539;49.476;8.484;2022-10-17T01:36:53;6.90;;;3.00;;
12947;SDS011;6539;49.476;8.484;2022-10-17T01:39:39;2.77;;;2.57;;
12947;SDS011;6539;49.476;8.484;2022-10-17T01:44:56;5.90;;;2.70;;
12947;SDS011;6539;49.476;8.484;2022-10-17T01:47:35;4.63;;;3.10;;
12947;SDS011;6539;49.476;8.484;2022-10-17T01:53:15;7.37;;;2.80;;
12947;SDS011;6539;49.476;8.484;2022-10-17T01:55:56;8.20;;;4.57;;
12947;SDS011;6539;49.476;8.484;2022-10-17T01:58:29;6.37;;;5.73;;
12947;SDS011;6539;49.476;8.484;2022-10-17T02:01:04;9.27;;;7.60;;
12947;SDS011;6539;49.476;8.484;2022-10-17T02:03:35;12.00;;;8.03;;
12947;SDS011;6539;49.476;8.484;2022-10-17T02:06:05;10.87;;;8.13;;
12947;SDS011;6539;49.476;8.484;2022-10-17T02:08:49;10.83;;;8.00;;
12947;SDS011;6539;49.476;8.484;2022-10-17T02:11:19;10.70;;;7.07;;
12947;SDS011;6539;49.476;8.484;2022-10-17T02:14:13;9.27;;;7.33;;
12947;SDS011;6539;49.476;8.484;2022-10-17T02:17:07;9.67;;;6.30;;
12947;SDS011;6539;49.476;8.484;2022-10-17T02:22:28;7.80;;;6.10;;
12947;SDS011;6539;49.476;8.484;2022-10-17T02:25:33;8.87;;;5.23;;
12947;SDS011;6539;49.476;8.484;2022-10-17T02:29:06;12.33;;;6.13;;
12947;SDS011;6539;49.476;8.484;2022-10-17T02:31:15;6.47;;;5.80;;
12947;SDS011;6539;49.476;8.484;2022-10-17T02:33:55;7.77;;;6.57;;
12947;SDS011;6539;49.476;8.484;2022-10-17T02:36:29;8.27;;;6.43;;
12947;SDS011;6539;49.476;8.484;2022-10-17T02:39:13;11.60;;;7.67;;
12947;SDS011;6539;49.476;8.484;2022-10-17T02:41:44;8.20;;;6.80;;
12947;SDS011;6539;49.476;8.484;2022-10-17T02:44:13;8.97;;;8.13;;
12947;SDS011;6539;49.476;8.484;2022-10-17T02:46:39;14.30;;;9.27;;
12947;SDS011;6539;49.476;8.484;2022-10-17T02:54:46;11.97;;;9.40;;
12947;SDS011;6539;49.476;8.484;2022-10-17T03:00:22;10.30;;;7.67;;
12947;SDS011;6539;49.476;8.484;2022-10-17T03:02:51;9.43;;;8.27;;
12947;SDS011;6539;49.476;8.484;2022-10-17T03:05:22;10.73;;;7.17;;
12947;SDS011;6539;49.476;8.484;2022-10-17T03:07:52;8.53;;;6.67;;
12947;SDS011;6539;49.476;8.484;2022-10-17T03:10:21;9.63;;;7.10;;
12947;SDS011;6539;49.476;8.484;2022-10-17T03:12:47;10.27;;;7.03;;
12947;SDS011;6539;49.476;8.484;2022-10-17T03:15:13;7.97;;;6.80;;
12947;SDS011;6539;49.476;8.484;2022-10-17T03:17:39;6.83;;;6.07;;
12947;SDS011;6539;49.476;8.484;2022-10-17T03:20:05;12.37;;;6.90;;
12947;SDS011;6539;49.476;8.484;2022-10-17T03:22:33;9.57;;;6.60;;
12947;SDS011;6539;49.476;8.484;2022-10-17T03:25:04;10.53;;;7.57;;
12947;SDS011;6539;49.476;8.484;2022-10-17T03:27:30;9.50;;;6.83;;
12947;SDS011;6539;49.476;8.484;2022-10-17T03:29:58;10.07;;;7.87;;
12947;SDS011;6539;49.476;8.484;2022-10-17T03:32:24;11.97;;;8.30;;
12947;SDS011;6539;49.476;8.484;2022-10-17T03:34:50;14.03;;;8.10;;
12947;SDS011;6539;49.476;8.484;2022-10-17T03:37:16;9.10;;;7.97;;
12947;SDS011;6539;49.476;8.484;2022-10-17T03:39:41;9.97;;;8.37;;
12947;SDS011;6539;49.476;8.484;2022-10-17T03:42:07;9.43;;;7.57;;
12947;SDS011;6539;49.476;8.484;2022-10-17T03:44:35;10.13;;;7.03;;
12947;SDS011;6539;49.476;8.484;2022-10-17T03:47:07;12.57;;;7.43;;
12947;SDS011;6539;49.476;8.484;2022-10-17T03:49:34;10.80;;;7.70;;
12947;SDS011;6539;49.476;8.484;2022-10-17T03:52:03;11.37;;;7.80;;
12947;SDS011;6539;49.476;8.484;2022-10-17T03:54:28;7.97;;;7.03;;
12947;SDS011;6539;49.476;8.484;2022-10-17T03:56:55;10.87;;;7.23;;
12947;SDS011;6539;49.476;8.484;2022-10-17T03:59:23;9.30;;;7.50;;
12947;SDS011;6539;49.476;8.484;2022-10-17T04:01:48;9.40;;;6.70;;
12947;SDS011;6539;49.476;8.484;2022-10-17T04:04:17;9.77;;;6.73;;
12947;SDS011;6539;49.476;8.484;2022-10-17T04:06:45;7.63;;;6.87;;
12947;SDS011;6539;49.476;8.484;2022-10-17T04:09:10;14.63;;;8.07;;
12947;SDS011;6539;49.476;8.484;2022-10-17T04:11:36;12.10;;;6.93;;
12947;SDS011;6539;49.476;8.484;2022-10-17T04:14:02;8.90;;;6.43;;
12947;SDS011;6539;49.476;8.484;2022-10-17T04:16:30;11.80;;;7.17;;
12947;SDS011;6539;49.476;8.484;2022-10-17T04:18:59;9.10;;;7.03;;
12947;SDS011;6539;49.476;8.484;2022-10-17T04:21:32;7.67;;;6.23;;
12947;SDS011;6539;49.476;8.484;2022-10-17T04:23:59;7.97;;;6.50;;
12947;SDS011;6539;49.476;8.484;2022-10-17T04:26:29;9.03;;;6.53;;
12947;SDS011;6539;49.476;8.484;2022-10-17T04:28:58;11.07;;;6.50;;
12947;SDS011;6539;49.476;8.484;2022-10-17T04:31:23;7.40;;;6.60;;
12947;SDS011;6539;49.476;8.484;2022-10-17T04:33:52;9.50;;;6.17;;
12947;SDS011;6539;49.476;8.484;2022-10-17T04:36:18;9.73;;;6.07;;
12947;SDS011;6539;49.476;8.484;2022-10-17T04:38:47;9.97;;;6.33;;
12947;SDS011;6539;49.476;8.484;2022-10-17T04:41:14;6.30;;;5.27;;
12947;SDS011;6539;49.476;8.484;2022-10-17T04:43:44;8.00;;;5.33;;
12947;SDS011;6539;49.476;8.484;2022-10-17T04:46:11;7.10;;;5.60;;
12947;SDS011;6539;49.476;8.484;2022-10-17T04:48:41;8.07;;;5.77;;
12947;SDS011;6539;49.476;8.484;2022-10-17T04:51:09;7.03;;;4.90;;
12947;SDS011;6539;49.476;8.484;2022-10-17T04:53:39;10.47;;;6.07;;
12947;SDS011;6539;49.476;8.484;2022-10-17T04:56:14;11.03;;;5.50;;
12947;SDS011;6539;49.476;8.484;2022-10-17T04:58:44;8.03;;;5.20;;
12947;SDS011;6539;49.476;8.484;2022-10-17T05:01:13;8.77;;;4.80;;
12947;SDS011;6539;49.476;8.484;2022-10-17T05:03:42;9.60;;;5.03;;
12947;SDS011;6539;49.476;8.484;2022-10-17T05:06:18;6.20;;;4.67;;
12947;SDS011;6539;49.476;8.484;2022-10-17T05:08:49;7.70;;;4.97;;
12947;SDS011;6539;49.476;8.484;2022-10-17T05:13:55;6.27;;;4.43;;
12947;SDS011;6539;49.476;8.484;2022-10-17T05:16:26;7.47;;;4.90;;
12947;SDS011;6539;49.476;8.484;2022-10-17T05:18:54;6.80;;;4.17;;
12947;SDS011;6539;49.476;8.484;2022-10-17T05:21:22;8.63;;;5.87;;
12947;SDS011;6539;49.476;8.484;2022-10-17T05:23:52;7.70;;;5.10;;
12947;SDS011;6539;49.476;8.484;2022-10-17T05:26:20;9.13;;;4.10;;
12947;SDS011;6539;49.476;8.484;2022-10-17T05:28:48;12.43;;;4.60;;
12947;SDS011;6539;49.476;8.484;2022-10-17T05:31:16;8.90;;;4.37;;
12947;SDS011;6539;49.476;8.484;2022-10-17T05:33:42;6.40;;;4.67;;
12947;SDS011;6539;49.476;8.484;2022-10-17T05:36:10;8.63;;;4.17;;
12947;SDS011;6539;49.476;8.484;2022-10-17T05:38:39;7.63;;;4.00;;
12947;SDS011;6539;49.476;8.484;2022-10-17T05:41:08;6.67;;;3.73;;
12947;SDS011;6539;49.476;8.484;2022-10-17T05:43:34;6.63;;;3.83;;
12947;SDS011;6539;49.476;8.484;2022-10-17T05:46:03;5.50;;;4.00;;
12947;SDS011;6539;49.476;8.484;2022-10-17T05:48:30;7.03;;;4.03;;
12947;SDS011;6539;49.476;8.484;2022-10-17T05:50:57;6.10;;;4.40;;
12947;SDS011;6539;49.476;8.484;2022-10-17T05:53:31;8.93;;;4.27;;
12947;SDS011;6539;49.476;8.484;2022-10-17T05:56:00;8.83;;;4.40;;
12947;SDS011;6539;49.476;8.484;2022-10-17T05:58:32;8.43;;;4.43;;
12947;SDS011;6539;49.476;8.484;2022-10-17T06:01:03;9.30;;;5.00;;
12947;SDS011;6539;49.476;8.484;2022-10-17T06:03:30;8.70;;;4.13;;
12947;SDS011;6539;49.476;8.484;2022-10-17T06:06:02;6.53;;;3.90;;
12947;SDS011;6539;49.476;8.484;2022-10-17T06:08:37;11.33;;;4.30;;
12947;SDS011;6539;49.476;8.484;2022-10-17T06:11:03;11.27;;;5.20;;
12947;SDS011;6539;49.476;8.484;2022-10-17T06:13:29;5.73;;;4.40;;
12947;SDS011;6539;49.476;8.484;2022-10-17T06:15:56;8.07;;;4.47;;
12947;SDS011;6539;49.476;8.484;2022-10-17T06:18:24;8.00;;;4.93;;
12947;SDS011;6539;49.476;8.484;2022-10-17T06:20:50;12.40;;;5.57;;
12947;SDS011;6539;49.476;8.484;2022-10-17T06:23:16;8.60;;;4.07;;
12947;SDS011;6539;49.476;8.484;2022-10-17T06:25:42;6.20;;;3.80;;
12947;SDS011;6539;49.476;8.484;2022-10-17T06:28:08;17.47;;;6.43;;
12947;SDS011;6539;49.476;8.484;2022-10-17T06:30:37;4.37;;;3.80;;
12947;SDS011;6539;49.476;8.484;2022-10-17T06:33:05;6.47;;;3.60;;
12947;SDS011;6539;49.476;8.484;2022-10-17T06:35:31;8.83;;;4.30;;
12947;SDS011;6539;49.476;8.484;2022-10-17T06:37:59;9.17;;;4.50;;
12947;SDS011;6539;49.476;8.484;2022-10-17T06:40:24;9.87;;;4.20;;
12947;SDS011;6539;49.476;8.484;2022-10-17T06:42:50;8.97;;;3.87;;
12947;SDS011;6539;49.476;8.484;2022-10-17T06:45:16;6.90;;;3.90;;
12947;SDS011;6539;49.476;8.484;2022-10-17T06:47:42;6.27;;;3.90;;
12947;SDS011;6539;49.476;8.484;2022-10-17T06:50:08;5.13;;;3.90;;
12947;SDS011;6539;49.476;8.484;2022-10-17T06:52:34;6.13;;;4.00;;
12947;SDS011;6539;49.476;8.484;2022-10-17T06:55:00;11.07;;;5.20;;
12947;SDS011;6539;49.476;8.484;2022-10-17T06:57:33;5.57;;;3.70;;
12947;SDS011;6539;49.476;8.484;2022-10-17T06:59:59;5.00;;;4.03;;
12947;SDS011;6539;49.476;8.484;2022-10-17T07:02:31;6.23;;;3.60;;
12947;SDS011;6539;49.476;8.484;2022-10-17T07:04:59;5.50;;;3.57;;
12947;SDS011;6539;49.476;8.484;2022-10-17T07:07:25;5.23;;;3.37;;
12947;SDS011;6539;49.476;8.484;2022-10-17T07:09:54;7.93;;;3.20;;
12947;SDS011;6539;49.476;8.484;2022-10-17T07:12:19;5.13;;;3.43;;
12947;SDS011;6539;49.476;8.484;2022-10-17T07:14:46;7.37;;;2.97;;
12947;SDS011;6539;49.476;8.484;2022-10-17T07:17:16;8.27;;;3.40;;
12947;SDS011;6539;49.476;8.484;2022-10-17T07:19:45;5.17;;;2.93;;
12947;SDS011;6539;49.476;8.484;2022-10-17T07:22:11;6.20;;;3.33;;
12947;SDS011;6539;49.476;8.484;2022-10-17T07:24:37;5.67;;;3.20;;
12947;SDS011;6539;49.476;8.484;2022-10-17T07:27:05;4.97;;;2.87;;
12947;SDS011;6539;49.476;8.484;2022-10-17T07:29:31;5.20;;;3.10;;
12947;SDS011;6539;49.476;8.484;2022-10-17T07:31:57;3.80;;;2.60;;
12947;SDS011;6539;49.476;8.484;2022-10-17T07:34:23;4.37;;;2.60;;
12947;SDS011;6539;49.476;8.484;2022-10-17T07:36:54;7.33;;;3.13;;
12947;SDS011;6539;49.476;8.484;2022-10-17T07:39:22;6.30;;;3.13;;
12947;SDS011;6539;49.476;8.484;2022-10-17T07:41:48;14.40;;;3.20;;
12947;SDS011;6539;49.476;8.484;2022-10-17T07:44:14;6.57;;;2.80;;
12947;SDS011;6539;49.476;8.484;2022-10-17T07:46:41;5.97;;;3.20;;
12947;SDS011;6539;49.476;8.484;2022-10-17T07:49:06;7.13;;;2.93;;
12947;SDS011;6539;49.476;8.484;2022-10-17T07:51:32;5.80;;;2.97;;
12947;SDS011;6539;49.476;8.484;2022-10-17T07:54:00;5.30;;;3.57;;
12947;SDS011;6539;49.476;8.484;2022-10-17T07:56:26;13.60;;;3.20;;
12947;SDS011;6539;49.476;8.484;2022-10-17T07:58:54;5.50;;;3.13;;
12947;SDS011;6539;49.476;8.484;2022-10-17T08:01:20;5.07;;;2.70;;
12947;SDS011;6539;49.476;8.484;2022-10-17T08:03:46;5.63;;;2.63;;
12947;SDS011;6539;49.476;8.484;2022-10-17T08:06:15;10.87;;;3.30;;
12947;SDS011;6539;49.476;8.484;2022-10-17T08:08:46;7.10;;;3.00;;
12947;SDS011;6539;49.476;8.484;2022-10-17T08:11:14;4.07;;;2.60;;
12947;SDS011;6539;49.476;8.484;2022-10-17T08:13:40;4.70;;;2.53;;
12947;SDS011;6539;49.476;8.484;2022-10-17T08:16:07;3.87;;;2.80;;
12947;SDS011;6539;49.476;8.484;2022-10-17T08:18:38;5.87;;;3.27;;
12947;SDS011;6539;49.476;8.484;2022-10-17T08:21:08;4.27;;;2.73;;
12947;SDS011;6539;49.476;8.484;2022-10-17T08:23:35;8.00;;;2.87;;
12947;SDS011;6539;49.476;8.484;2022-10-17T08:26:02;2.60;;;2.40;;
12947;SDS011;6539;49.476;8.484;2022-10-17T08:28:35;4.07;;;2.73;;
12947;SDS011;6539;49.476;8.484;2022-10-17T08:31:03;5.83;;;2.63;;
12947;SDS011;6539;49.476;8.484;2022-10-17T08:33:32;5.10;;;2.70;;
12947;SDS011;6539;49.476;8.484;2022-10-17T08:36:01;7.87;;;2.90;;
12947;SDS011;6539;49.476;8.484;2022-10-17T08:38:31;3.72;;;2.55;;
12947;SDS011;6539;49.476;8.484;2022-10-17T08:40:59;5.27;;;2.70;;
12947;SDS011;6539;49.476;8.484;2022-10-17T08:46:44;3.95;;;2.50;;
12947;SDS011;6539;49.476;8.484;2022-10-17T08:49:19;4.40;;;2.50;;
12947;SDS011;6539;49.476;8.484;2022-10-17T08:55:21;6.75;;;2.70;;
12947;SDS011;6539;49.476;8.484;2022-10-17T08:58:11;6.38;;;2.70;;
12947;SDS011;6539;49.476;8.484;2022-10-17T09:00:44;9.20;;;2.63;;
12947;SDS011;6539;49.476;8.484;2022-10-17T09:03:27;5.95;;;2.72;;
12947;SDS011;6539;49.476;8.484;2022-10-17T09:20:36;4.32;;;2.60;;
12947;SDS011;6539;49.476;8.484;2022-10-17T09:23:19;4.90;;;2.40;;
12947;SDS011;6539;49.476;8.484;2022-10-17T09:25:51;5.28;;;2.83;;
12947;SDS011;6539;49.476;8.484;2022-10-17T09:28:35;7.57;;;3.08;;
12947;SDS011;6539;49.476;8.484;2022-10-17T09:32:08;7.95;;;2.60;;
12947;SDS011;6539;49.476;8.484;2022-10-17T09:34:12;4.13;;;3.27;;
12947;SDS011;6539;49.476;8.484;2022-10-17T09:36:39;3.73;;;2.80;;
12947;SDS011;6539;49.476;8.484;2022-10-17T09:41:50;5.33;;;2.67;;
12947;SDS011;6539;49.476;8.484;2022-10-17T09:44:31;4.00;;;2.90;;
12947;SDS011;6539;49.476;8.484;2022-10-17T09:50:13;4.37;;;2.50;;
12947;SDS011;6539;49.476;8.484;2022-10-17T09:53:05;5.60;;;2.83;;
12947;SDS011;6539;49.476;8.484;2022-10-17T09:55:44;8.47;;;2.70;;
12947;SDS011;6539;49.476;8.484;2022-10-17T09:58:14;5.47;;;3.13;;
12947;SDS011;6539;49.476;8.484;2022-10-17T10:00:41;5.22;;;2.95;;
12947;SDS011;6539;49.476;8.484;2022-10-17T10:03:20;6.28;;;2.80;;
12947;SDS011;6539;49.476;8.484;2022-10-17T10:08:46;3.22;;;2.60;;
12947;SDS011;6539;49.476;8.484;2022-10-17T10:11:22;9.25;;;3.13;;
12947;SDS011;6539;49.476;8.484;2022-10-17T10:14:28;4.07;;;2.87;;
12947;SDS011;6539;49.476;8.484;2022-10-17T10:19:59;4.38;;;2.90;;
12947;SDS011;6539;49.476;8.484;2022-10-17T10:22:33;6.00;;;2.92;;
12947;SDS011;6539;49.476;8.484;2022-10-17T10:25:06;4.88;;;2.78;;
12947;SDS011;6539;49.476;8.484;2022-10-17T10:27:35;6.15;;;2.90;;
12947;SDS011;6539;49.476;8.484;2022-10-17T10:30:04;3.55;;;2.47;;
12947;SDS011;6539;49.476;8.484;2022-10-17T10:32:32;4.53;;;3.08;;
12947;SDS011;6539;49.476;8.484;2022-10-17T10:37:53;5.35;;;2.60;;
12947;SDS011;6539;49.476;8.484;2022-10-17T10:40:24;8.07;;;3.13;;
12947;SDS011;6539;49.476;8.484;2022-10-17T10:43:03;8.43;;;3.05;;
12947;SDS011;6539;49.476;8.484;2022-10-17T10:48:17;4.07;;;2.97;;
12947;SDS011;6539;49.476;8.484;2022-10-17T10:51:09;8.35;;;2.92;;
12947;SDS011;6539;49.476;8.484;2022-10-17T10:53:44;8.38;;;3.03;;
12947;SDS011;6539;49.476;8.484;2022-10-17T10:56:38;8.60;;;4.35;;
12947;SDS011;6539;49.476;8.484;2022-10-17T11:05:00;4.97;;;2.55;;
12947;SDS011;6539;49.476;8.484;2022-10-17T11:07:50;5.63;;;3.05;;
12947;SDS011;6539;49.476;8.484;2022-10-17T11:10:43;5.55;;;3.03;;
12947;SDS011;6539;49.476;8.484;2022-10-17T11:13:42;3.65;;;2.90;;
12947;SDS011;6539;49.476;8.484;2022-10-17T11:19:09;6.40;;;3.58;;
12947;SDS011;6539;49.476;8.484;2022-10-17T11:24:37;4.40;;;2.88;;
12947;SDS011;6539;49.476;8.484;2022-10-17T11:27:24;3.20;;;2.22;;
12947;SDS011;6539;49.476;8.484;2022-10-17T11:29:56;4.03;;;2.60;;
12947;SDS011;6539;49.476;8.484;2022-10-17T11:32:27;7.07;;;3.25;;
12947;SDS011;6539;49.476;8.484;2022-10-17T11:35:13;15.48;;;4.20;;
12947;SDS011;6539;49.476;8.484;2022-10-17T11:37:43;6.35;;;2.85;;
12947;SDS011;6539;49.476;8.484;2022-10-17T11:42:57;3.72;;;2.47;;
12947;SDS011;6539;49.476;8.484;2022-10-17T11:45:32;3.22;;;2.80;;
12947;SDS011;6539;49.476;8.484;2022-10-17T11:48:11;3.50;;;2.90;;
12947;SDS011;6539;49.476;8.484;2022-10-17T11:50:54;6.20;;;2.58;;
12947;SDS011;6539;49.476;8.484;2022-10-17T11:53:33;3.78;;;2.70;;
12947;SDS011;6539;49.476;8.484;2022-10-17T11:56:33;4.00;;;2.25;;
12947;SDS011;6539;49.476;8.484;2022-10-17T11:59:33;4.80;;;2.72;;
12947;SDS011;6539;49.476;8.484;2022-10-17T12:14:33;5.65;;;2.60;;
12947;SDS011;6539;49.476;8.484;2022-10-17T12:22:47;3.85;;;2.40;;
12947;SDS011;6539;49.476;8.484;2022-10-17T12:25:26;6.53;;;2.15;;
12947;SDS011;6539;49.476;8.484;2022-10-17T12:30:49;8.40;;;2.50;;
12947;SDS011;6539;49.476;8.484;2022-10-17T12:33:32;8.10;;;2.92;;
12947;SDS011;6539;49.476;8.484;2022-10-17T12:41:52;6.32;;;3.10;;
12947;SDS011;6539;49.476;8.484;2022-10-17T12:46:47;5.10;;;2.10;;
12947;SDS011;6539;49.476;8.484;2022-10-17T13:01:03;3.90;;;2.40;;
12947;SDS011;6539;49.476;8.484;2022-10-17T13:05:46;4.83;;;2.40;;
12947;SDS011;6539;49.476;8.484;2022-10-17T13:08:21;4.78;;;2.78;;
12947;SDS011;6539;49.476;8.484;2022-10-17T13:11:08;2.83;;;2.55;;
12947;SDS011;6539;49.476;8.484;2022-10-17T13:13:48;4.40;;;3.10;;
12947;SDS011;6539;49.476;8.484;2022-10-17T13:19:03;4.93;;;2.80;;
12947;SDS011;6539;49.476;8.484;2022-10-17T13:21:54;5.63;;;2.70;;
12947;SDS011;6539;49.476;8.484;2022-10-17T13:24:29;5.97;;;2.50;;
12947;SDS011;6539;49.476;8.484;2022-10-17T13:27:03;4.90;;;2.97;;
12947;SDS011;6539;49.476;8.484;2022-10-17T13:29:48;5.27;;;2.70;;
12947;SDS011;6539;49.476;8.484;2022-10-17T13:32:13;3.73;;;2.60;;
12947;SDS011;6539;49.476;8.484;2022-10-17T13:34:39;5.30;;;2.67;;
12947;SDS011;6539;49.476;8.484;2022-10-17T13:37:09;3.90;;;2.87;;
12947;SDS011;6539;49.476;8.484;2022-10-17T13:39:42;7.13;;;2.67;;
12947;SDS011;6539;49.476;8.484;2022-10-17T13:42:27;4.13;;;2.77;;
12947;SDS011;6539;49.476;8.484;2022-10-17T13:45:03;9.10;;;2.93;;
12947;SDS011;6539;49.476;8.484;2022-10-17T13:47:42;6.37;;;2.57;;
12947;SDS011;6539;49.476;8.484;2022-10-17T13:50:15;4.63;;;2.73;;
12947;SDS011;6539;49.476;8.484;2022-10-17T13:53:04;5.17;;;2.80;;
12947;SDS011;6539;49.476;8.484;2022-10-17T13:58:40;5.10;;;3.10;;
12947;SDS011;6539;49.476;8.484;2022-10-17T14:01:10;5.60;;;2.60;;
12947;SDS011;6539;49.476;8.484;2022-10-17T14:03:41;6.43;;;2.90;;
12947;SDS011;6539;49.476;8.484;2022-10-17T14:11:36;9.03;;;3.87;;
12947;SDS011;6539;49.476;8.484;2022-10-17T14:14:06;9.77;;;8.67;;
12947;SDS011;6539;49.476;8.484;2022-10-17T14:16:47;9.30;;;3.47;;
12947;SDS011;6539;49.476;8.484;2022-10-17T14:19:23;6.07;;;3.10;;
12947;SDS011;6539;49.476;8.484;2022-10-17T14:25:03;5.37;;;3.10;;
12947;SDS011;6539;49.476;8.484;2022-10-17T14:30:52;3.57;;;2.80;;
12947;SDS011;6539;49.476;8.484;2022-10-17T14:33:01;4.50;;;2.80;;
12947;SDS011;6539;49.476;8.484;2022-10-17T14:35:35;7.23;;;3.10;;
12947;SDS011;6539;49.476;8.484;2022-10-17T14:38:04;6.67;;;3.47;;
12947;SDS011;6539;49.476;8.484;2022-10-17T14:40:32;5.17;;;3.30;;
12947;SDS011;6539;49.476;8.484;2022-10-17T14:43:02;3.33;;;2.53;;
12947;SDS011;6539;49.476;8.484;2022-10-17T14:45:33;7.07;;;2.40;;
12947;SDS011;6539;49.476;8.484;2022-10-17T14:48:10;3.57;;;2.93;;
12947;SDS011;6539;49.476;8.484;2022-10-17T14:54:00;6.20;;;2.73;;
12947;SDS011;6539;49.476;8.484;2022-10-17T14:56:48;3.37;;;2.77;;
12947;SDS011;6539;49.476;8.484;2022-10-17T14:59:16;5.57;;;2.73;;
12947;SDS011;6539;49.476;8.484;2022-10-17T15:01:46;4.23;;;2.80;;
12947;SDS011;6539;49.476;8.484;2022-10-17T15:04:14;4.10;;;2.60;;
12947;SDS011;6539;49.476;8.484;2022-10-17T15:06:40;4.83;;;3.17;;
12947;SDS011;6539;49.476;8.484;2022-10-17T15:09:06;12.20;;;3.10;;
12947;SDS011;6539;49.476;8.484;2022-10-17T15:11:36;4.87;;;2.93;;
12947;SDS011;6539;49.476;8.484;2022-10-17T15:14:03;5.80;;;2.73;;
12947;SDS011;6539;49.476;8.484;2022-10-17T15:16:31;4.77;;;2.97;;
12947;SDS011;6539;49.476;8.484;2022-10-17T15:18:58;6.73;;;3.27;;
12947;SDS011;6539;49.476;8.484;2022-10-17T15:21:27;4.47;;;3.30;;
12947;SDS011;6539;49.476;8.484;2022-10-17T15:23:56;9.53;;;3.10;;
12947;SDS011;6539;49.476;8.484;2022-10-17T15:26:24;7.47;;;3.47;;
12947;SDS011;6539;49.476;8.484;2022-10-17T15:28:54;5.70;;;3.10;;
12947;SDS011;6539;49.476;8.484;2022-10-17T15:31:26;5.00;;;3.27;;
12947;SDS011;6539;49.476;8.484;2022-10-17T15:33:55;5.57;;;2.93;;
12947;SDS011;6539;49.476;8.484;2022-10-17T15:36:27;4.33;;;3.17;;
12947;SDS011;6539;49.476;8.484;2022-10-17T15:39:01;4.43;;;3.07;;
12947;SDS011;6539;49.476;8.484;2022-10-17T15:41:28;7.47;;;3.37;;
12947;SDS011;6539;49.476;8.484;2022-10-17T15:44:01;4.50;;;3.23;;
12947;SDS011;6539;49.476;8.484;2022-10-17T15:46:30;5.03;;;3.10;;
12947;SDS011;6539;49.476;8.484;2022-10-17T15:49:03;6.13;;;3.27;;
12947;SDS011;6539;49.476;8.484;2022-10-17T15:51:31;7.47;;;3.50;;
12947;SDS011;6539;49.476;8.484;2022-10-17T15:53:57;4.90;;;2.90;;
12947;SDS011;6539;49.476;8.484;2022-10-17T15:56:36;5.97;;;3.40;;
12947;SDS011;6539;49.476;8.484;2022-10-17T15:59:12;4.50;;;2.77;;
12947;SDS011;6539;49.476;8.484;2022-10-17T16:01:44;7.67;;;3.50;;
12947;SDS011;6539;49.476;8.484;2022-10-17T16:04:13;7.10;;;3.37;;
12947;SDS011;6539;49.476;8.484;2022-10-17T16:06:42;9.20;;;4.20;;
12947;SDS011;6539;49.476;8.484;2022-10-17T16:09:08;7.57;;;4.03;;
12947;SDS011;6539;49.476;8.484;2022-10-17T16:11:40;4.07;;;3.00;;
12947;SDS011;6539;49.476;8.484;2022-10-17T16:14:12;4.27;;;3.30;;
12947;SDS011;6539;49.476;8.484;2022-10-17T16:16:42;7.83;;;3.40;;
12947;SDS011;6539;49.476;8.484;2022-10-17T16:19:08;4.53;;;3.40;;
12947;SDS011;6539;49.476;8.484;2022-10-17T16:21:36;4.13;;;3.30;;
12947;SDS011;6539;49.476;8.484;2022-10-17T16:24:04;6.17;;;3.10;;
12947;SDS011;6539;49.476;8.484;2022-10-17T16:26:36;13.40;;;4.30;;
12947;SDS011;6539;49.476;8.484;2022-10-17T16:29:04;5.23;;;3.90;;
12947;SDS011;6539;49.476;8.484;2022-10-17T16:31:31;6.33;;;4.40;;
12947;SDS011;6539;49.476;8.484;2022-10-17T16:34:00;6.70;;;3.70;;
12947;SDS011;6539;49.476;8.484;2022-10-17T16:36:30;4.67;;;3.30;;
12947;SDS011;6539;49.476;8.484;2022-10-17T16:38:59;8.10;;;4.53;;
12947;SDS011;6539;49.476;8.484;2022-10-17T16:41:28;4.40;;;3.70;;
12947;SDS011;6539;49.476;8.484;2022-10-17T16:44:03;5.00;;;3.03;;
12947;SDS011;6539;49.476;8.484;2022-10-17T16:46:39;7.57;;;4.07;;
12947;SDS011;6539;49.476;8.484;2022-10-17T16:49:08;4.53;;;3.43;;
12947;SDS011;6539;49.476;8.484;2022-10-17T16:51:34;8.67;;;3.73;;
12947;SDS011;6539;49.476;8.484;2022-10-17T16:54:07;5.63;;;3.70;;
12947;SDS011;6539;49.476;8.484;2022-10-17T16:56:33;9.10;;;3.70;;
12947;SDS011;6539;49.476;8.484;2022-10-17T16:58:59;9.67;;;4.60;;
12947;SDS011;6539;49.476;8.484;2022-10-17T17:01:26;8.80;;;6.40;;
12947;SDS011;6539;49.476;8.484;2022-10-17T17:03:53;14.83;;;6.80;;
12947;SDS011;6539;49.476;8.484;2022-10-17T17:06:21;10.23;;;6.00;;
12947;SDS011;6539;49.476;8.484;2022-10-17T17:08:54;12.53;;;7.17;;
12947;SDS011;6539;49.476;8.484;2022-10-17T17:11:25;10.17;;;6.50;;
12947;SDS011;6539;49.476;8.484;2022-10-17T17:13:55;13.83;;;9.07;;
12947;SDS011;6539;49.476;8.484;2022-10-17T17:16:23;14.77;;;9.43;;
12947;SDS011;6539;49.476;8.484;2022-10-17T17:18:56;10.73;;;8.67;;
12947;SDS011;6539;49.476;8.484;2022-10-17T17:21:28;10.93;;;7.90;;
12947;SDS011;6539;49.476;8.484;2022-10-17T17:23:58;13.10;;;7.93;;
12947;SDS011;6539;49.476;8.484;2022-10-17T17:26:27;12.97;;;6.30;;
12947;SDS011;6539;49.476;8.484;2022-10-17T17:29:02;13.17;;;11.03;;
12947;SDS011;6539;49.476;8.484;2022-10-17T17:31:31;8.57;;;5.00;;
12947;SDS011;6539;49.476;8.484;2022-10-17T17:33:59;11.17;;;5.00;;
12947;SDS011;6539;49.476;8.484;2022-10-17T17:36:30;13.00;;;10.07;;
12947;SDS011;6539;49.476;8.484;2022-10-17T17:38:59;16.90;;;14.50;;
12947;SDS011;6539;49.476;8.484;2022-10-17T17:41:28;17.63;;;11.90;;
12947;SDS011;6539;49.476;8.484;2022-10-17T17:43:54;14.83;;;11.00;;
12947;SDS011;6539;49.476;8.484;2022-10-17T17:46:22;17.17;;;10.90;;
12947;SDS011;6539;49.476;8.484;2022-10-17T17:48:52;15.43;;;12.00;;
12947;SDS011;6539;49.476;8.484;2022-10-17T17:51:20;8.43;;;5.80;;
12947;SDS011;6539;49.476;8.484;2022-10-17T17:53:49;13.00;;;8.80;;